Time;durP1;ratioP1;P1;durP2;ratioP2;P2;SDS_P1;SDS_P2;PMS_P1;PMS_P2;Temp;Humidity;BMP_temperature;BMP_pressure;BME280_temperature;BME280_humidity;BME280_pressure;Samples;Min_cycle;Max_cycle;Signal;HPM_P1;HPM_P2
2022/08/29 00:04:51;;;;;;;7.90;3.90;;;;;;;10.61;100.00;96976.97;10392935;28;20248;-73
2022/08/29 00:09:52;;;;;;;8.00;4.32;;;;;;;10.57;100.00;96986.09;10411484;28;20184;-73
2022/08/29 00:14:52;;;;;;;6.20;3.80;;;;;;;10.56;100.00;96984.44;10410937;28;20203;-73
2022/08/29 00:19:52;;;;;;;11.20;3.77;;;;;;;10.55;100.00;96990.66;10409176;28;20266;-73
2022/08/29 00:24:53;;;;;;;6.00;3.30;;;;;;;10.51;100.00;96978.81;10410210;28;20196;-73
2022/08/29 00:29:53;;;;;;;9.90;4.23;;;;;;;10.44;100.00;96991.69;10392810;28;20238;-73
2022/08/29 00:34:53;;;;;;;6.28;3.75;;;;;;;10.46;100.00;96999.38;10392432;28;20283;-73
2022/08/29 00:39:54;;;;;;;9.47;3.80;;;;;;;10.32;100.00;96995.44;10409471;28;20278;-73
2022/08/29 00:44:54;;;;;;;10.83;3.50;;;;;;;10.37;100.00;96998.50;10409520;28;20196;-73
2022/08/29 00:49:56;;;;;;;12.70;4.10;;;;;;;10.35;100.00;97003.88;10375824;28;20215;-73
2022/08/29 00:54:56;;;;;;;8.37;4.03;;;;;;;10.34;100.00;96997.00;10391948;28;20193;-73
2022/08/29 00:59:57;;;;;;;15.90;3.87;;;;;;;10.30;100.00;96992.16;10390746;28;20242;-72
2022/08/29 01:04:59;;;;;;;10.83;4.20;;;;;;;10.27;100.00;96995.88;10373370;28;20230;-72
2022/08/29 01:09:59;;;;;;;7.63;3.97;;;;;;;10.18;100.00;96994.16;10408128;28;20193;-72
2022/08/29 01:15:03;;;;;;;8.10;3.60;;;;;;;10.20;100.00;96994.00;10389907;28;20192;-72
2022/08/29 01:20:13;;;;;;;11.23;3.70;;;;;;;10.13;100.00;97001.63;10389868;28;20236;-72
2022/08/29 01:25:18;;;;;;;9.30;3.53;;;;;;;10.07;100.00;97008.28;10406876;28;20185;-72
2022/08/29 01:30:18;;;;;;;9.00;3.60;;;;;;;10.08;100.00;97016.97;10407993;28;20196;-72
2022/08/29 01:35:19;;;;;;;11.83;4.93;;;;;;;10.03;100.00;97019.19;10373607;28;20258;-72
2022/08/29 01:40:20;;;;;;;7.33;4.07;;;;;;;10.02;100.00;97022.78;10408073;28;20254;-72
2022/08/29 01:45:20;;;;;;;16.23;4.63;;;;;;;9.97;100.00;97012.75;10407756;28;20193;-72
2022/08/29 01:50:20;;;;;;;7.43;4.10;;;;;;;9.96;100.00;97018.94;10408471;28;20543;-72
2022/08/29 01:55:21;;;;;;;7.30;4.00;;;;;;;9.92;100.00;97010.56;10407650;28;20616;-72
2022/08/29 02:00:21;;;;;;;9.10;3.30;;;;;;;9.85;100.00;97019.97;10407959;28;20616;-72
2022/08/29 02:05:22;;;;;;;9.83;4.10;;;;;;;9.82;100.00;97013.22;10407894;28;20708;-73
2022/08/29 02:10:23;;;;;;;8.93;4.13;;;;;;;9.76;100.00;97013.78;10407393;28;20715;-72
2022/08/29 02:15:25;;;;;;;9.00;4.07;;;;;;;9.72;100.00;97016.84;10407684;28;20672;-72
2022/08/29 02:20:26;;;;;;;13.90;4.97;;;;;;;9.71;100.00;97026.50;10407603;28;20228;-72
2022/08/29 02:25:42;;;;;;;11.27;4.00;;;;;;;9.66;100.00;97020.03;10407039;28;20192;-72
2022/08/29 02:30:45;;;;;;;9.93;3.60;;;;;;;9.59;100.00;97014.56;10407687;28;20184;-72
2022/08/29 02:35:47;;;;;;;11.33;4.47;;;;;;;9.54;100.00;97017.59;10407186;28;20722;-72
2022/08/29 02:40:48;;;;;;;9.03;4.23;;;;;;;9.51;100.00;97017.03;10406685;28;20564;-72
2022/08/29 02:45:49;;;;;;;7.27;3.63;;;;;;;9.46;100.00;97023.53;10410862;28;20200;-73
2022/08/29 02:50:53;;;;;;;13.10;3.67;;;;;;;9.44;100.00;97024.63;10414939;28;20554;-72
2022/08/29 02:55:53;;;;;;;8.23;4.13;;;;;;;9.38;100.00;97023.41;10396091;28;20196;-72
2022/08/29 03:00:55;;;;;;;7.90;3.73;;;;;;;9.38;100.00;97025.22;10414126;28;20660;-73
2022/08/29 03:05:55;;;;;;;13.53;4.53;;;;;;;9.36;100.00;97027.16;10419896;28;20234;-72
2022/08/29 03:10:56;;;;;;;11.63;3.27;;;;;;;9.32;100.00;97018.75;10448069;28;20194;-72
2022/08/29 03:15:56;;;;;;;11.13;3.57;;;;;;;9.25;100.00;97023.72;10447431;28;20184;-72
2022/08/29 03:20:57;;;;;;;8.50;3.83;;;;;;;9.25;100.00;97018.50;10447499;28;20212;-72
2022/08/29 03:25:57;;;;;;;6.87;4.10;;;;;;;9.26;100.00;97017.53;10446629;28;20232;-72
2022/08/29 03:30:57;;;;;;;15.70;4.10;;;;;;;9.23;100.00;97009.13;10447733;28;20700;-73
2022/08/29 03:35:58;;;;;;;12.87;3.33;;;;;;;9.18;100.00;97008.75;10446567;28;20212;-73
2022/08/29 03:40:58;;;;;;;12.13;3.97;;;;;;;9.15;100.00;97017.66;10445966;28;20318;-73
2022/08/29 03:45:58;;;;;;;6.93;4.53;;;;;;;9.05;100.00;97019.47;10446763;28;20522;-73
2022/08/29 03:50:59;;;;;;;8.13;4.10;;;;;;;9.00;100.00;97022.50;10446308;28;20188;-73
2022/08/29 03:55:59;;;;;;;12.10;4.30;;;;;;;8.95;100.00;97029.94;10444749;28;20218;-73
2022/08/29 04:01:00;;;;;;;16.00;4.73;;;;;;;8.97;100.00;97038.44;10446309;28;20215;-73
2022/08/29 04:06:01;;;;;;;9.40;4.13;;;;;;;8.92;100.00;97031.03;10451850;28;20232;-73
2022/08/29 04:11:10;;;;;;;6.37;4.20;;;;;;;8.84;100.00;97043.97;10452740;28;20202;-73
2022/08/29 04:16:13;;;;;;;12.43;3.80;;;;;;;8.80;100.00;97050.41;10451924;28;20184;-73
2022/08/29 04:21:14;;;;;;;8.53;4.10;;;;;;;8.77;100.00;97047.25;10452400;28;20334;-72
2022/08/29 04:26:16;;;;;;;8.20;4.50;;;;;;;8.77;100.00;97055.91;10451513;28;20219;-73
2022/08/29 04:31:18;;;;;;;11.27;3.67;;;;;;;8.79;100.00;97050.56;10460555;28;20211;-73
2022/08/29 04:36:19;;;;;;;7.63;4.43;;;;;;;8.79;100.00;97053.16;10450978;28;20208;-73
2022/08/29 04:41:20;;;;;;;12.50;4.20;;;;;;;8.79;100.00;97053.16;10451335;28;20224;-73
2022/08/29 04:46:20;;;;;;;8.17;4.37;;;;;;;8.74;100.00;97064.03;10451107;28;20200;-73
2022/08/29 04:51:21;;;;;;;10.40;4.13;;;;;;;8.78;100.00;97069.81;10451023;28;20275;-73
2022/08/29 04:56:21;;;;;;;11.50;3.87;;;;;;;8.78;100.00;97072.44;10450718;28;20287;-73
2022/08/29 05:01:25;;;;;;;10.17;4.30;;;;;;;8.80;100.00;97078.34;10450406;28;20226;-73
2022/08/29 05:06:27;;;;;;;8.83;4.20;;;;;;;8.83;100.00;97081.50;10449506;28;20401;-73
2022/08/29 05:11:29;;;;;;;13.37;4.77;;;;;;;8.88;100.00;97076.69;10450337;28;20199;-73
2022/08/29 05:16:30;;;;;;;8.13;4.33;;;;;;;8.97;100.00;97074.22;10450041;28;20600;-73
2022/08/29 05:21:33;;;;;;;7.27;4.47;;;;;;;9.07;100.00;97077.66;10450541;28;20216;-73
2022/08/29 05:26:37;;;;;;;9.07;4.20;;;;;;;9.27;100.00;97073.25;10432181;28;20679;-73
2022/08/29 05:31:40;;;;;;;8.30;4.13;;;;;;;9.40;100.00;97068.56;10449816;28;20556;-73
2022/08/29 05:36:41;;;;;;;10.30;4.17;;;;;;;9.69;100.00;97066.81;10449152;28;20219;-73
2022/08/29 05:41:41;;;;;;;8.90;4.10;;;;;;;10.34;100.00;97075.56;10449415;28;20231;-73
2022/08/29 05:46:41;;;;;;;8.37;4.37;;;;;;;10.56;100.00;97055.16;10449119;28;20199;-73
2022/08/29 05:51:42;;;;;;;4.53;3.20;;;;;;;11.36;100.00;97044.75;10449901;28;20190;-73
2022/08/29 05:56:42;;;;;;;12.13;3.35;;;;;;;11.72;100.00;97038.56;10449189;28;20195;-72
2022/08/29 06:01:44;;;;;;;10.02;3.78;;;;;;;12.26;100.00;97038.34;10449567;28;20227;-72
2022/08/29 06:06:45;;;;;;;9.35;3.40;;;;;;;12.56;100.00;97023.00;10449014;28;20239;-73
2022/08/29 06:11:47;;;;;;;7.47;3.20;;;;;;;13.03;100.00;97032.88;10435240;28;20188;-73
2022/08/29 06:16:48;;;;;;;8.77;3.28;;;;;;;13.18;100.00;97030.44;10423594;28;20192;-72
2022/08/29 06:21:48;;;;;;;7.78;2.88;;;;;;;13.78;100.00;97031.84;10432024;28;20215;-72
2022/08/29 06:26:48;;;;;;;9.45;3.40;;;;;;;13.79;100.00;97036.13;10421010;28;20192;-72
2022/08/29 06:31:49;;;;;;;9.32;3.40;;;;;;;14.26;100.00;97039.75;10435370;28;20189;-71
2022/08/29 06:36:52;;;;;;;10.63;3.67;;;;;;;14.89;100.00;97014.19;10452754;28;20260;-72
2022/08/29 06:41:52;;;;;;;13.18;4.15;;;;;;;14.41;100.00;97035.41;10456464;28;20628;-72
2022/08/29 06:46:57;;;;;;;10.68;3.40;;;;;;;15.20;100.00;97042.31;10455255;28;20270;-72
2022/08/29 06:51:58;;;;;;;14.13;3.67;;;;;;;15.24;100.00;97034.91;10456367;28;20286;-72
2022/08/29 06:56:59;;;;;;;13.50;3.35;;;;;;;14.82;100.00;97033.53;10455635;28;20203;-71
2022/08/29 07:01:59;;;;;;;11.35;3.92;;;;;;;14.50;100.00;97028.28;10455547;28;20745;-71
2022/08/29 07:06:59;;;;;;;12.30;3.50;;;;;;;15.01;100.00;97026.97;10455013;28;20219;-71
2022/08/29 07:12:00;;;;;;;10.88;3.20;;;;;;;15.98;97.79;97003.28;10454773;28;20290;-72
2022/08/29 07:17:00;;;;;;;12.45;3.20;;;;;;;15.77;97.47;96997.88;10451641;28;20200;-71
2022/08/29 07:22:00;;;;;;;11.45;3.33;;;;;;;15.47;97.22;97003.97;10451272;28;20651;-72
2022/08/29 07:27:01;;;;;;;9.27;4.15;;;;;;;15.90;94.19;96984.09;10450599;28;20210;-72
2022/08/29 07:32:01;;;;;;;7.05;2.95;;;;;;;15.60;91.75;96974.28;10450832;28;20192;-72
2022/08/29 07:37:03;;;;;;;13.52;3.65;;;;;;;16.26;89.27;96970.88;10450608;28;20302;-72
2022/08/29 07:42:03;;;;;;;8.50;3.25;;;;;;;17.54;83.11;96933.94;10450808;28;20211;-72
2022/08/29 07:47:04;;;;;;;15.90;3.90;;;;;;;17.50;79.87;96934.53;10450367;28;20183;-72
2022/08/29 07:52:04;;;;;;;5.53;3.22;;;;;;;19.20;72.74;96878.81;10434611;28;20192;-72
2022/08/29 07:57:05;;;;;;;13.60;2.97;;;;;;;20.20;69.86;96880.31;10449729;28;20227;-73
2022/08/29 08:02:05;;;;;;;9.85;3.80;;;;;;;18.46;74.09;96921.25;10446925;28;20215;-72
2022/08/29 08:07:05;;;;;;;7.25;3.08;;;;;;;20.62;69.13;96894.78;10445820;28;20576;-73
2022/08/29 08:12:06;;;;;;;10.18;3.83;;;;;;;19.11;70.14;96904.81;10450088;28;20202;-72
2022/08/29 08:17:06;;;;;;;10.40;3.80;;;;;;;19.94;66.36;96872.28;10448959;28;20672;-73
2022/08/29 08:22:07;;;;;;;9.38;3.47;;;;;;;21.81;62.38;96864.59;10449625;28;20680;-73
2022/08/29 08:27:07;;;;;;;7.10;3.17;;;;;;;20.61;62.40;96831.94;10448393;28;20687;-71
2022/08/29 08:32:07;;;;;;;11.43;3.53;;;;;;;21.42;63.87;96889.81;10448874;28;20195;-73
2022/08/29 08:37:08;;;;;;;6.95;3.28;;;;;;;20.80;66.24;96925.22;10448699;28;20303;-73
2022/08/29 08:42:41;;;;;;;9.75;3.47;;;;;;;21.09;63.83;96893.66;10447521;28;20223;-72
2022/08/29 08:47:53;;;;;;;7.45;3.55;;;;;;;19.58;68.50;96949.88;10448414;28;20203;-73
2022/08/29 08:52:58;;;;;;;12.10;3.33;;;;;;;22.34;61.18;96881.75;10448887;28;20196;-73
2022/08/29 08:58:42;;;;;;;8.75;3.40;;;;;;;19.15;64.55;96881.28;10429478;28;20212;-73
2022/08/29 09:04:11;;;;;;;8.27;3.67;;;;;;;21.86;61.70;96898.59;10413368;28;20192;-72
2022/08/29 09:09:19;;;;;;;9.80;3.65;;;;;;;22.52;58.61;96864.06;10407359;28;20717;-72
2022/08/29 09:14:41;;;;;;;7.38;3.45;;;;;;;24.06;52.68;96792.53;10408058;28;20219;-73
2022/08/29 09:19:41;;;;;;;10.43;3.78;;;;;;;22.44;58.81;96881.22;10404460;28;20547;-72
2022/08/29 09:24:53;;;;;;;12.38;3.92;;;;;;;22.72;56.91;96856.53;10387560;28;20196;-73
2022/08/29 09:30:08;;;;;;;4.80;2.78;;;;;;;25.07;51.05;96815.03;10406814;28;20203;-73
2022/08/29 09:35:29;;;;;;;7.60;3.78;;;;;;;25.89;49.38;96815.25;10438757;28;20204;-72
2022/08/29 09:40:42;;;;;;;8.90;3.75;;;;;;;25.52;49.03;96795.25;10427207;28;20219;-72
2022/08/29 09:46:06;;;;;;;12.00;3.00;;;;;;;23.81;56.13;96897.16;10446118;28;20191;-73
2022/08/29 09:51:10;;;;;;;9.90;3.55;;;;;;;22.92;55.82;96868.75;10446380;28;20191;-72
2022/08/29 09:56:16;;;;;;;12.48;3.45;;;;;;;23.90;54.00;96860.19;10451679;28;20192;-72
2022/08/29 10:01:18;;;;;;;8.55;3.50;;;;;;;24.43;52.82;96853.66;10436026;28;20228;-72
2022/08/29 10:06:24;;;;;;;9.57;3.45;;;;;;;24.54;52.53;96846.63;10454262;28;20232;-73
2022/08/29 10:11:48;;;;;;;10.30;3.70;;;;;;;24.28;54.03;96870.25;10454481;28;20176;-74
2022/08/29 10:18:19;;;;;;;8.18;3.90;;;;;;;25.62;50.34;96827.56;10443495;28;20195;-73
2022/08/29 10:22:35;;;;;;;5.93;3.30;;;;;;;24.90;52.81;96863.28;10435730;28;20303;-72
2022/08/29 10:27:48;;;;;;;13.70;3.78;;;;;;;25.28;51.79;96856.31;10431657;28;20278;-73
2022/08/29 10:33:19;;;;;;;9.32;3.78;;;;;;;24.96;50.61;96811.38;10429796;28;20203;-72
2022/08/29 10:38:44;;;;;;;7.43;3.60;;;;;;;26.90;47.06;96812.94;10450272;28;20246;-72
2022/08/29 10:43:51;;;;;;;9.75;4.30;;;;;;;25.90;50.11;96847.19;10426019;28;20206;-73
2022/08/29 10:49:15;;;;;;;8.52;3.85;;;;;;;26.19;49.51;96844.31;10423832;28;20454;-73
2022/08/29 10:54:30;;;;;;;9.30;4.28;;;;;;;23.15;52.54;96801.97;10443400;28;20192;-72
2022/08/29 11:00:03;;;;;;;14.25;4.07;;;;;;;25.09;52.56;96877.25;10413022;28;20261;-73
2022/08/29 11:05:10;;;;;;;9.55;3.65;;;;;;;25.84;50.60;96863.50;10425651;28;20223;-73
2022/08/29 11:10:16;;;;;;;11.68;3.67;;;;;;;25.36;52.29;96876.56;10391667;28;20776;-71
2022/08/29 11:15:27;;;;;;;13.00;4.05;;;;;;;25.82;50.31;96844.97;10424573;28;20196;-71
2022/08/29 11:20:32;;;;;;;6.13;3.38;;;;;;;27.19;47.58;96826.81;10408256;28;20216;-71
2022/08/29 11:25:33;;;;;;;15.77;8.55;;;;;;;26.34;50.09;96851.72;10385754;28;20562;-73
2022/08/29 11:30:37;;;;;;;7.47;3.60;;;;;;;28.04;45.77;96810.53;10385944;28;20603;-72
2022/08/29 11:36:10;;;;;;;9.73;3.63;;;;;;;25.19;49.29;96793.44;10406901;28;20240;-72
2022/08/29 11:41:17;;;;;;;7.65;2.90;;;;;;;27.36;46.41;96802.47;10408216;28;20264;-72
2022/08/29 11:46:32;;;;;;;7.70;3.60;;;;;;;26.94;45.71;96779.91;10389579;28;20196;-72
2022/08/29 11:51:36;;;;;;;9.80;3.95;;;;;;;21.41;54.87;96795.75;10389584;28;20633;-72
2022/08/29 11:56:36;;;;;;;9.43;3.30;;;;;;;25.80;48.10;96810.34;10389418;28;20197;-73
2022/08/29 12:01:37;;;;;;;9.32;3.22;;;;;;;27.54;46.00;96822.72;10407752;28;20275;-73
2022/08/29 12:06:50;;;;;;;12.10;3.17;;;;;;;24.34;52.23;96855.91;10405069;28;20239;-72
2022/08/29 12:12:18;;;;;;;8.82;3.55;;;;;;;26.96;47.59;96828.03;10430890;28;20195;-74
2022/08/29 12:17:18;;;;;;;9.85;3.33;;;;;;;27.93;44.59;96808.84;10429030;28;20230;-72
2022/08/29 12:22:52;;;;;;;6.93;3.15;;;;;;;28.32;44.77;96813.00;10447822;28;20302;-72
2022/08/29 12:28:01;;;;;;;7.68;2.95;;;;;;;29.82;42.19;96801.66;10446893;28;20200;-72
2022/08/29 12:33:35;;;;;;;7.90;3.22;;;;;;;29.48;41.44;96753.75;10446382;28;20828;-72
2022/08/29 12:38:52;;;;;;;9.30;3.28;;;;;;;29.49;41.81;96760.75;10446662;28;20247;-73
2022/08/29 12:43:55;;;;;;;8.05;3.17;;;;;;;27.83;43.79;96739.63;10443887;28;20200;-72
2022/08/29 12:49:28;;;;;;;5.18;3.15;;;;;;;29.38;41.60;96753.78;10445933;28;20192;-72
2022/08/29 12:54:38;;;;;;;8.95;3.55;;;;;;;28.41;42.71;96742.09;10442940;28;20656;-72
2022/08/29 12:59:43;;;;;;;8.27;3.45;;;;;;;27.35;45.04;96749.72;10448385;28;20860;-72
2022/08/29 13:04:43;;;;;;;11.20;3.80;;;;;;;27.91;43.33;96722.94;10447605;28;20266;-72
2022/08/29 13:10:17;;;;;;;4.18;3.20;;;;;;;28.77;43.13;96757.44;10449573;28;20267;-73
2022/08/29 13:15:25;;;;;;;10.10;3.42;;;;;;;27.52;43.95;96744.13;10418314;28;20195;-72
2022/08/29 13:20:41;;;;;;;8.55;3.40;;;;;;;27.76;45.47;96792.91;10437295;28;20219;-72
2022/08/29 13:25:43;;;;;;;6.35;3.50;;;;;;;29.98;39.87;96723.22;10445725;28;20238;-72
2022/08/29 13:30:44;;;;;;;7.85;3.03;;;;;;;30.25;39.88;96720.03;10446809;28;20176;-72
2022/08/29 13:35:44;;;;;;;12.85;3.70;;;;;;;28.43;43.11;96731.06;10428022;28;20304;-72
2022/08/29 13:40:47;;;;;;;6.73;3.33;;;;;;;27.72;42.77;96701.13;10432970;28;20239;-72
2022/08/29 13:45:47;;;;;;;5.20;2.60;;;;;;;27.91;42.04;96681.75;10410696;28;20884;-72
2022/08/29 13:50:47;;;;;;;6.10;2.65;;;;;;;27.23;44.09;96707.69;10438493;28;20202;-72
2022/08/29 13:55:48;;;;;;;5.88;2.70;;;;;;;26.84;44.28;96705.38;10416570;28;20230;-72
2022/08/29 14:00:48;;;;;;;5.77;2.73;;;;;;;27.86;42.42;96714.06;10419967;28;20306;-72
2022/08/29 14:05:52;;;;;;;6.95;2.83;;;;;;;27.32;43.80;96713.41;10446065;28;20512;-72
2022/08/29 14:10:53;;;;;;;7.80;2.72;;;;;;;28.10;40.33;96653.22;10429469;28;20317;-72
2022/08/29 14:16:02;;;;;;;9.47;2.73;;;;;;;27.23;43.23;96693.44;10422513;28;20547;-72
2022/08/29 14:21:03;;;;;;;5.18;2.33;;;;;;;28.33;40.77;96680.69;10419562;28;21048;-72
2022/08/29 14:26:03;;;;;;;8.82;2.88;;;;;;;29.90;38.54;96672.50;10444975;28;20191;-72
2022/08/29 14:31:04;;;;;;;7.15;2.17;;;;;;;29.80;37.66;96633.69;10445921;28;20186;-72
2022/08/29 14:36:05;;;;;;;10.20;2.30;;;;;;;29.16;38.60;96638.13;10444787;28;20215;-72
2022/08/29 14:41:05;;;;;;;6.55;2.70;;;;;;;28.19;41.04;96674.22;10449160;28;20275;-72
2022/08/29 14:46:05;;;;;;;4.37;2.27;;;;;;;31.21;37.59;96703.13;10452920;28;20195;-72
2022/08/29 14:51:06;;;;;;;8.38;2.42;;;;;;;31.40;36.64;96676.06;10453255;28;20450;-72
2022/08/29 14:56:06;;;;;;;5.77;2.60;;;;;;;32.29;35.34;96665.53;10452634;28;20287;-72
2022/08/29 15:01:37;;;;;;;5.00;3.08;;;;;;;31.20;36.57;96641.19;10452476;28;20474;-72
2022/08/29 15:06:38;;;;;;;5.35;2.03;;;;;;;31.28;37.16;96667.59;10435853;28;20315;-71
2022/08/29 15:11:38;;;;;;;5.75;2.80;;;;;;;31.56;35.80;96624.44;10444715;28;20223;-71
2022/08/29 15:16:39;;;;;;;3.37;2.17;;;;;;;32.49;35.05;96638.03;10431599;28;20196;-71
2022/08/29 15:21:39;;;;;;;3.72;2.30;;;;;;;31.89;36.47;96665.91;10427425;28;20474;-71
2022/08/29 15:26:39;;;;;;;5.70;2.30;;;;;;;32.23;35.55;96642.34;10411100;28;20287;-71
2022/08/29 15:31:40;;;;;;;4.30;2.20;;;;;;;34.01;32.42;96636.16;10428620;28;20446;-71
2022/08/29 15:36:40;;;;;;;3.93;2.23;;;;;;;32.07;34.94;96622.78;10431596;28;20466;-71
2022/08/29 15:41:40;;;;;;;4.17;2.07;;;;;;;31.36;36.32;96622.81;10428541;28;20565;-71
2022/08/29 15:46:41;;;;;;;6.17;2.50;;;;;;;31.64;36.40;96643.53;10444275;28;20493;-74
2022/08/29 15:51:41;;;;;;;4.60;2.35;;;;;;;29.90;37.88;96597.69;10452205;28;20439;-74
2022/08/29 15:56:42;;;;;;;2.83;2.00;;;;;;;29.47;40.12;96656.84;10451305;28;20210;-74
2022/08/29 16:01:49;;;;;;;5.32;2.50;;;;;;;29.12;40.83;96655.94;10452080;28;20485;-74
2022/08/29 16:06:50;;;;;;;4.63;2.10;;;;;;;29.93;37.83;96618.72;10450418;28;20239;-74
2022/08/29 16:11:51;;;;;;;3.25;2.28;;;;;;;31.84;34.93;96622.66;10450654;28;20196;-74
2022/08/29 16:16:51;;;;;;;6.88;2.30;;;;;;;32.18;34.50;96606.06;10449582;28;20187;-74
2022/08/29 16:21:52;;;;;;;6.90;2.57;;;;;;;32.04;33.78;96582.72;10446478;28;20648;-74
2022/08/29 16:26:53;;;;;;;4.60;2.30;;;;;;;31.79;35.10;96595.63;10447377;28;20519;-74
2022/08/29 16:31:54;;;;;;;7.68;2.53;;;;;;;30.56;36.03;96577.28;10407913;28;20628;-74
2022/08/29 16:36:56;;;;;;;7.80;2.17;;;;;;;29.79;37.07;96571.84;10407813;28;20208;-74
2022/08/29 16:41:56;;;;;;;7.55;2.65;;;;;;;29.21;37.95;96575.25;10405987;28;20888;-74
2022/08/29 16:46:57;;;;;;;5.38;2.33;;;;;;;28.68;38.51;96571.19;10408031;28;20192;-74
2022/08/29 16:51:58;;;;;;;4.83;2.40;;;;;;;27.22;41.76;96611.94;10407634;28;20185;-74
2022/08/29 16:56:58;;;;;;;8.07;3.05;;;;;;;25.24;45.91;96652.22;10410856;28;20451;-74
2022/08/29 17:02:00;;;;;;;6.00;2.63;;;;;;;23.98;50.30;96732.19;10448150;28;20232;-75
2022/08/29 17:07:01;;;;;;;5.55;2.72;;;;;;;23.27;52.65;96772.53;10446943;28;20699;-75
2022/08/29 17:17:02;;;;;;;7.32;2.50;;;;;;;21.40;58.01;96841.25;10420262;28;20196;-75
2022/08/29 17:22:03;;;;;;;6.38;2.67;;;;;;;20.48;60.93;96883.41;10440955;28;20211;-75
2022/08/29 17:27:03;;;;;;;5.43;2.63;;;;;;;19.39;64.88;96922.34;10438013;28;20302;-75
2022/08/29 17:32:05;;;;;;;3.70;2.80;;;;;;;18.06;71.71;96970.72;10428251;28;20215;-75
2022/08/29 17:37:07;;;;;;;4.55;2.63;;;;;;;16.97;78.92;96962.28;10406455;28;20506;-75
2022/08/29 17:42:07;;;;;;;7.30;2.92;;;;;;;15.99;86.38;96962.66;10420116;28;20208;-75
2022/08/29 17:47:08;;;;;;;6.13;2.65;;;;;;;15.25;95.76;96971.38;10406873;28;20282;-75
2022/08/29 17:52:08;;;;;;;6.15;2.90;;;;;;;15.40;99.09;96963.44;10414021;28;20185;-75
2022/08/29 17:57:08;;;;;;;8.10;2.90;;;;;;;15.22;100.00;96971.72;10418226;28;20292;-75
2022/08/29 18:02:09;;;;;;;5.90;2.92;;;;;;;14.82;100.00;96981.59;10411398;28;20576;-75
2022/08/29 18:07:09;;;;;;;6.63;2.90;;;;;;;14.74;100.00;96984.31;10405212;28;20252;-75
2022/08/29 18:12:10;;;;;;;5.53;3.45;;;;;;;14.55;100.00;96986.38;10430738;28;20184;-75
2022/08/29 18:17:10;;;;;;;8.20;3.45;;;;;;;14.45;100.00;96996.34;10452908;28;20647;-76
2022/08/29 18:22:10;;;;;;;6.57;3.63;;;;;;;14.24;100.00;96999.56;10456549;28;20581;-75
2022/08/29 18:27:11;;;;;;;6.22;3.78;;;;;;;14.01;100.00;97004.78;10457090;28;20262;-76
2022/08/29 18:32:11;;;;;;;8.88;3.67;;;;;;;13.88;100.00;97005.34;10459342;28;20549;-75
2022/08/29 18:37:12;;;;;;;9.00;3.85;;;;;;;13.66;100.00;97004.22;10454754;28;20559;-75
2022/08/29 18:42:12;;;;;;;9.80;3.78;;;;;;;13.50;100.00;97002.47;10419354;28;20598;-76
2022/08/29 18:47:13;;;;;;;11.57;3.85;;;;;;;13.33;100.00;97009.53;10442992;28;20501;-77
2022/08/29 18:52:13;;;;;;;10.52;3.60;;;;;;;13.30;100.00;97020.41;10412791;28;20726;-76
2022/08/29 18:57:14;;;;;;;6.72;3.75;;;;;;;13.20;100.00;97025.84;10419129;28;20695;-76
2022/08/29 19:02:14;;;;;;;20.83;4.20;;;;;;;12.94;100.00;97029.44;10413324;28;20668;-76
2022/08/29 19:07:15;;;;;;;10.90;3.78;;;;;;;12.89;100.00;97046.69;10446843;28;20227;-76
2022/08/29 19:12:15;;;;;;;6.32;3.33;;;;;;;12.80;100.00;97049.31;10430510;28;20598;-76
2022/08/29 19:17:16;;;;;;;7.70;3.20;;;;;;;12.57;100.00;97048.28;10432137;28;20188;-76
2022/08/29 19:22:17;;;;;;;15.80;4.10;;;;;;;12.40;100.00;97058.72;10413479;28;20238;-76
2022/08/29 19:27:18;;;;;;;12.10;4.22;;;;;;;12.29;100.00;97051.16;10412461;28;20195;-76
2022/08/29 19:32:19;;;;;;;8.57;4.20;;;;;;;12.22;100.00;97060.63;10432138;28;20200;-76
2022/08/29 19:37:19;;;;;;;6.97;4.35;;;;;;;12.09;100.00;97058.47;10431711;28;20630;-76
2022/08/29 19:42:20;;;;;;;6.35;4.10;;;;;;;12.06;100.00;97064.84;10416753;28;20656;-76
2022/08/29 19:47:20;;;;;;;10.07;4.07;;;;;;;11.90;100.00;97062.13;10410706;28;20208;-76
2022/08/29 19:52:20;;;;;;;8.15;4.60;;;;;;;11.76;100.00;97055.63;10410740;28;20275;-76
2022/08/29 19:57:21;;;;;;;5.97;3.72;;;;;;;11.78;100.00;97067.63;10410756;28;20554;-76
2022/08/29 20:02:21;;;;;;;4.90;3.33;;;;;;;11.64;100.00;97059.50;10410157;28;20709;-76
2022/08/29 20:07:21;;;;;;;10.13;4.22;;;;;;;11.53;100.00;97074.53;10409299;28;20630;-76
2022/08/29 20:12:22;;;;;;;9.57;3.67;;;;;;;11.48;100.00;97071.53;10445157;28;20203;-76
2022/08/29 20:17:22;;;;;;;12.80;4.05;;;;;;;11.42;100.00;97072.97;10450312;28;20192;-76
2022/08/29 20:22:22;;;;;;;6.82;3.97;;;;;;;11.34;100.00;97072.09;10450985;28;20286;-76
2022/08/29 20:27:23;;;;;;;7.35;4.38;;;;;;;11.26;100.00;97069.41;10450924;28;20319;-76
2022/08/29 20:32:23;;;;;;;9.60;4.57;;;;;;;11.17;100.00;97079.00;10450247;28;20218;-76
2022/08/29 20:37:24;;;;;;;8.32;4.25;;;;;;;11.07;100.00;97079.91;10450208;28;20754;-76
2022/08/29 20:42:34;;;;;;;7.15;4.10;;;;;;;10.97;100.00;97078.34;10450745;28;20707;-76
2022/08/29 20:47:34;;;;;;;10.75;4.00;;;;;;;10.99;100.00;97085.06;10450687;28;20188;-76
2022/08/29 20:52:36;;;;;;;8.77;4.07;;;;;;;10.86;100.00;97089.88;10450712;28;20263;-76
2022/08/29 20:57:38;;;;;;;8.80;4.00;;;;;;;10.78;100.00;97095.00;10450497;28;20573;-76
2022/08/29 21:07:57;;;;;;;10.03;4.13;;;;;;;10.75;100.00;97095.31;10449510;28;20267;-76
2022/08/29 21:12:57;;;;;;;6.70;4.25;;;;;;;10.65;100.00;97101.44;10432613;28;20282;-77
2022/08/29 21:17:58;;;;;;;7.30;4.40;;;;;;;10.60;100.00;97100.25;10449515;28;20199;-75
2022/08/29 21:23:03;;;;;;;10.87;4.90;;;;;;;10.54;100.00;97112.13;10450629;28;20713;-76
2022/08/29 21:28:05;;;;;;;7.87;5.40;;;;;;;10.52;100.00;97114.03;10448119;28;20303;-76
2022/08/29 21:33:05;;;;;;;11.97;5.07;;;;;;;10.57;100.00;97114.44;10449801;28;20183;-76
2022/08/29 21:38:07;;;;;;;8.83;4.20;;;;;;;10.57;100.00;97113.63;10449610;28;20215;-76
2022/08/29 21:43:07;;;;;;;10.80;4.83;;;;;;;10.47;100.00;97119.72;10449307;28;20202;-76
2022/08/29 21:48:07;;;;;;;10.03;4.60;;;;;;;10.39;100.00;97116.19;10431301;28;20191;-76
2022/08/29 21:53:13;;;;;;;7.73;5.10;;;;;;;10.34;100.00;97120.06;10431321;28;20204;-76
2022/08/29 21:58:13;;;;;;;7.63;5.70;;;;;;;10.33;100.00;97121.03;10448601;28;20250;-76
2022/08/29 22:03:14;;;;;;;7.07;4.50;;;;;;;10.41;100.00;97117.69;10448915;28;20192;-76
2022/08/29 22:08:14;;;;;;;9.30;5.33;;;;;;;10.31;100.00;97112.47;10448559;28;20224;-76
2022/08/29 22:13:15;;;;;;;8.17;5.00;;;;;;;10.31;100.00;97122.13;10430906;28;20191;-76
2022/08/29 22:18:16;;;;;;;12.37;5.43;;;;;;;10.20;100.00;97117.91;10448290;28;20198;-76
2022/08/29 22:23:17;;;;;;;8.20;5.90;;;;;;;10.10;100.00;97122.34;10448516;28;20192;-76
2022/08/29 22:28:18;;;;;;;12.63;6.27;;;;;;;10.07;100.00;97120.03;10448365;28;20224;-77
2022/08/29 22:33:19;;;;;;;12.30;5.70;;;;;;;10.08;100.00;97121.69;10448434;28;20516;-76
2022/08/29 22:38:19;;;;;;;8.57;6.03;;;;;;;10.02;100.00;97123.06;10430376;28;20219;-76
2022/08/29 22:43:20;;;;;;;17.07;6.63;;;;;;;9.98;100.00;97117.31;10448147;28;20199;-76
2022/08/29 22:48:20;;;;;;;11.47;6.67;;;;;;;9.96;100.00;97121.03;10447865;28;20191;-76
2022/08/29 22:53:20;;;;;;;10.63;6.13;;;;;;;9.98;100.00;97126.94;10448283;28;20196;-76
2022/08/29 22:58:21;;;;;;;9.50;6.40;;;;;;;9.93;100.00;97131.78;10447217;28;20330;-76
2022/08/29 23:03:21;;;;;;;12.60;7.20;;;;;;;9.89;100.00;97133.00;10452714;28;20192;-76
2022/08/29 23:08:21;;;;;;;9.57;6.40;;;;;;;9.93;100.00;97134.38;10454251;28;20533;-76
2022/08/29 23:13:22;;;;;;;11.00;6.93;;;;;;;9.92;100.00;97128.34;10455041;28;20211;-76
2022/08/29 23:18:23;;;;;;;10.67;6.20;;;;;;;9.93;100.00;97127.34;10453925;28;20191;-76
2022/08/29 23:23:23;;;;;;;9.90;6.63;;;;;;;9.86;100.00;97126.25;10454721;28;20192;-76
2022/08/29 23:28:23;;;;;;;8.47;5.80;;;;;;;9.74;100.00;97124.78;10454288;28;20199;-76
2022/08/29 23:33:26;;;;;;;14.30;6.87;;;;;;;9.77;100.00;97121.88;10453843;28;20192;-76